Main page
METAR-TAF:

METAR-TAF

Airports :

Aydın Airport

Aydın, Turkey

latitude: 37-48-54N, longitude: 27-53-21E, elevation: 31 m

Current weather observation

The report was made 49 minutes ago, at 03:50 UTC
Wind 4 kt from the East/Northeast, varying between Northeast and East
Temperature 14°C
Humidity 100%
Pressure 1018 hPa
Visibility: 5000 m
mist

METAR: LTBD 160350Z 07004KT 040V100 5000 BR NSC 14/14 Q1018

Time: 07:39 (04:39 UTC)

Forecast

The report was made 2 hours and 59 minutes ago, at 01:40 UTC
Forecast valid from 16 at 03 UTC to 16 at 12 UTC
Wind 2 kt from variable directions
Visibility 10 km or more
no clouds below 1500 m and no cumulonimbus
Temporary
from 16 at 04 UTC to 16 at 07 UTC
Visibility: 3200 m
mist
Becoming
from 16 at 07 UTC to 16 at 09 UTC
Few clouds at a height of 3000 ft

TAF: LTBD 160140Z 1603/1612 VRB02KT CAVOK TEMPO 1604/1607 3200 BR BECMG 1607/1609 FEW030

Weather observations and forecasts of more than 4000 airports (METAR and TAF reports).

The available stations are represented by yellow and red dots on the map.

Hover mouse over dot to see the name of the station.

Then click to see weather observations and forecasts.

To change the map : click on the green buttons with a black cross to zoom in, on the green button with a dash to zoom out, or on the green arrows for adjacent maps.


METAR-TAF: